METAR Data
IDs: Format: Raw Decoded Include TAF

Data at: 0145 UTC 19 Oct 2021

KBVX 190056Z AUTO 13003KT 10SM CLR 16/07 RMK AO2 SLPNO T01560072 $
KBVX 182356Z AUTO 17003KT 10SM CLR 17/07 A3011 RMK AO2 SLP199 6//// T01720067 10222 20172 56008
KBVX 182256Z AUTO 17004KT 10SM CLR 20/07 A3012 RMK AO2 SLP198 T02000067
KBVX 182156Z AUTO 22004KT 10SM CLR 21/06 A3013 RMK AO2 SLP201 T02110061
KBVX 182056Z AUTO 20007KT 10SM CLR 22/06 A3014 RMK AO2 SLP205 6//// T02170061 56023
KBVX 181956Z AUTO 19006KT 10SM CLR 22/07 A3015 RMK AO2 SLP208 T02220067
KBVX 181856Z AUTO 00000KT 10SM CLR 22/06 A3017 RMK AO2 SLP216 T02170056
KBVX 181756Z AUTO 18006KT 10SM CLR 21/06 A3021 RMK AO2 SLP228 6//// T02110056 10217 20061 58016
KBVX 181656Z AUTO 23008KT 10SM CLR 21/07 A3023 RMK AO2 SLP235 T02060067
KBVX 181556Z AUTO VRB04KT 10SM CLR 19/08 A3025 RMK AO2 SLP242 T01890083
KBVX 181456Z AUTO 00000KT 10SM CLR 15/08 A3025 RMK AO2 SLP245 6//// T01500078
KBVX 181356Z AUTO 10SM CLR 12/08 RMK AO2 SLPNO T01220078 $
KBVX 181256Z AUTO 10SM CLR 07/06 RMK AO2 SLPNO T00720061 $
KBVX 181156Z AUTO 00000KT 10SM CLR 06/06 A3022 RMK AO2 SLP234 6//// 7//// T00610056 10083 20056 53007
KBVX 181056Z AUTO 00000KT 10SM CLR 06/06 A3021 RMK AO2 SLP230 T00610056
KBVX 180956Z AUTO 00000KT 10SM CLR 07/06 A3020 RMK AO2 SLP225 T00670056
KBVX 180856Z AUTO 00000KT 10SM CLR 07/06 A3019 RMK AO2 SLP224 6//// T00720061 58006
KBVX 180756Z AUTO 00000KT 10SM CLR 07/06 A3020 RMK AO2 SLP225 T00670061
KBVX 180656Z AUTO 00000KT 10SM CLR 08/07 A3021 RMK AO2 SLP229 T00780067
KBVX 180556Z AUTO 00000KT 10SM CLR 08/07 A3021 RMK AO2 SLP230 6//// T00830067 10161 20083 402280044 58006
KBVX 180456Z AUTO 00000KT 10SM CLR 09/07 A3022 RMK AO2 SLP233 T00890067
KBVX 180356Z AUTO 00000KT 8SM CLR 10/07 A3023 RMK AO2 SLP236 T01000067
KBVX 180256Z AUTO 00000KT 10SM CLR 11/06 A3023 RMK AO2 SLP238 6//// T01060061 53006
KBVX 180156Z AUTO 00000KT 10SM CLR 12/07 A3022 RMK AO2 SLP237 T01170067
KBVX 180056Z AUTO 00000KT 10SM CLR 14/06 A3022 RMK AO2 SLP235 T01440061
KBVX 172356Z AUTO 00000KT 10SM CLR 16/06 A3021 RMK AO2 SLP232 6//// T01610056 10228 20161
KBVX 172256Z AUTO 00000KT 10SM CLR 20/04 RMK AO2 SLPNO T02000039 $
KBVX 172156Z AUTO 26004KT 10SM CLR 22/03 A3022 RMK AO2 SLP232 T02170028
KBVX 172056Z AUTO 31004KT 10SM CLR 22/03 A3023 RMK AO2 SLP235 6//// T02220028 56025
KBVX 171956Z AUTO VRB03KT 10SM CLR 22/03 A3024 RMK AO2 SLP240 T02220033
KBVX 171856Z AUTO 16004KT 10SM CLR 21/03 A3027 RMK AO2 SLP248 T02110033
KBVX 171756Z AUTO 21005KT 10SM CLR 20/03 A3030 RMK AO2 SLP260 6//// T02000028 10206 20044 58013
KBVX 171656Z AUTO 00000KT 10SM CLR 19/03 A3032 RMK AO2 SLP268 T01890033
KBVX 171556Z AUTO 34003KT 10SM CLR 16/06 A3034 RMK AO2 SLP273 T01610061
KBVX 171456Z AUTO 29004KT 10SM CLR 12/07 A3034 RMK AO2 SLP275 6//// T01220067 51007
KBVX 171356Z AUTO VRB03KT 10SM CLR 08/06 A3034 RMK AO2 SLP273 T00830061